<?xml version="1.0" encoding="UTF-8" standalone="no" ?><gpx xmlns="http://www.topografix.com/GPX/1/1" xmlns:gpxx="http://www.garmin.com/xmlschemas/GpxExtensions/v3" xmlns:gpxtrkx="http://www.garmin.com/xmlschemas/TrackStatsExtension/v1" xmlns:wptx1="http://www.garmin.com/xmlschemas/WaypointExtension/v1" xmlns:gpxtpx="http://www.garmin.com/xmlschemas/TrackPointExtension/v1" creator="eTrex 20" version="1.1" xmlns:xsi="http://www.w3.org/2001/XMLSchema-instance" xsi:schemaLocation="http://www.topografix.com/GPX/1/1 http://www.topografix.com/GPX/1/1/gpx.xsd http://www.garmin.com/xmlschemas/GpxExtensions/v3 http://www8.garmin.com/xmlschemas/GpxExtensionsv3.xsd http://www.garmin.com/xmlschemas/TrackStatsExtension/v1 http://www8.garmin.com/xmlschemas/TrackStatsExtension.xsd http://www.garmin.com/xmlschemas/WaypointExtension/v1 http://www8.garmin.com/xmlschemas/WaypointExtensionv1.xsd http://www.garmin.com/xmlschemas/TrackPointExtension/v1 http://www.garmin.com/xmlschemas/TrackPointExtensionv1.xsd"><metadata><link href="http://www.garmin.com"><text>Garmin International</text></link><time>2015-04-08T08:04:41Z</time></metadata><trk><name>2015-04-08 11:04:37</name><extensions><gpxx:TrackExtension><gpxx:DisplayColor>Cyan</gpxx:DisplayColor></gpxx:TrackExtension><gpxtrkx:TrackStatsExtension><gpxtrkx:Distance>207213</gpxtrkx:Distance></gpxtrkx:TrackStatsExtension></extensions><trkseg><trkpt lat="12.5171003491" lon="37.4311889615"><ele>1969.88</ele><time>2015-04-08T06:21:33Z</time></trkpt><trkpt lat="12.5170146860" lon="37.4312191363"><ele>1966.51</ele><time>2015-04-08T06:22:04Z</time></trkpt><trkpt lat="12.5165441260" lon="37.4313379079"><ele>1966.51</ele><time>2015-04-08T06:22:25Z</time></trkpt><trkpt lat="12.5158827100" lon="37.4315518979"><ele>1966.99</ele><time>2015-04-08T06:22:43Z</time></trkpt><trkpt lat="12.5156131480" lon="37.4319195282"><ele>1966.03</ele><time>2015-04-08T06:22:56Z</time></trkpt><trkpt lat="12.5156318396" lon="37.4322830513"><ele>1966.99</ele><time>2015-04-08T06:23:13Z</time></trkpt><trkpt lat="12.5159981288" lon="37.4324570596"><ele>1967.96</ele><time>2015-04-08T06:23:28Z</time></trkpt><trkpt lat="12.5163756497" lon="37.4324977119"><ele>1969.40</ele><time>2015-04-08T06:23:38Z</time></trkpt><trkpt lat="12.5167426094" lon="37.4328983668"><ele>1969.40</ele><time>2015-04-08T06:23:48Z</time></trkpt><trkpt lat="12.5168401748" lon="37.4335634708"><ele>1969.88</ele><time>2015-04-08T06:24:02Z</time></trkpt><trkpt lat="12.5168686733" lon="37.4336834997"><ele>1969.88</ele><time>2015-04-08T06:24:15Z</time></trkpt><trkpt lat="12.5170006044" lon="37.4341455940"><ele>1969.40</ele><time>2015-04-08T06:24:25Z</time></trkpt><trkpt lat="12.5175775308" lon="37.4344982207"><ele>1971.32</ele><time>2015-04-08T06:24:35Z</time></trkpt><trkpt lat="12.5176588353" lon="37.4345003162"><ele>1971.32</ele><time>2015-04-08T06:24:36Z</time></trkpt><trkpt lat="12.5190104172" lon="37.4342643656"><ele>1976.13</ele><time>2015-04-08T06:24:51Z</time></trkpt><trkpt lat="12.5215380639" lon="37.4337935541"><ele>1981.90</ele><time>2015-04-08T06:25:18Z</time></trkpt><trkpt lat="12.5248299725" lon="37.4331860337"><ele>1989.59</ele><time>2015-04-08T06:25:53Z</time></trkpt><trkpt lat="12.5269252807" lon="37.4328112788"><ele>1994.39</ele><time>2015-04-08T06:26:11Z</time></trkpt><trkpt lat="12.5291511789" lon="37.4324117973"><ele>1999.68</ele><time>2015-04-08T06:26:30Z</time></trkpt><trkpt lat="12.5309894979" lon="37.4320813827"><ele>2003.52</ele><time>2015-04-08T06:26:49Z</time></trkpt><trkpt lat="12.5316980202" lon="37.4320902675"><ele>2004.49</ele><time>2015-04-08T06:27:01Z</time></trkpt><trkpt lat="12.5321474578" lon="37.4321235437"><ele>2004.49</ele><time>2015-04-08T06:27:14Z</time></trkpt><trkpt lat="12.5320843421" lon="37.4319170974"><ele>2004.97</ele><time>2015-04-08T06:27:22Z</time></trkpt><trkpt lat="12.5318490621" lon="37.4318538979"><ele>2005.45</ele><time>2015-04-08T06:27:27Z</time></trkpt><trkpt lat="12.5311956089" lon="37.4319600128"><ele>2004.97</ele><time>2015-04-08T06:27:33Z</time></trkpt><trkpt lat="12.5300664827" lon="37.4321632739"><ele>2004.01</ele><time>2015-04-08T06:27:38Z</time></trkpt><trkpt lat="12.5283873361" lon="37.4324719794"><ele>2002.56</ele><time>2015-04-08T06:27:43Z</time></trkpt><trkpt lat="12.5261922833" lon="37.4328614864"><ele>1999.20</ele><time>2015-04-08T06:27:48Z</time></trkpt><trkpt lat="12.5234891195" lon="37.4333614670"><ele>1993.91</ele><time>2015-04-08T06:27:53Z</time></trkpt><trkpt lat="12.5196730066" lon="37.4340436701"><ele>1986.22</ele><time>2015-04-08T06:27:59Z</time></trkpt><trkpt lat="12.5152963120" lon="37.4348646775"><ele>1977.09</ele><time>2015-04-08T06:28:05Z</time></trkpt><trkpt lat="12.5082265120" lon="37.4361559935"><ele>1968.44</ele><time>2015-04-08T06:28:14Z</time></trkpt><trkpt lat="12.5002050307" lon="37.4376398418"><ele>1969.88</ele><time>2015-04-08T06:28:24Z</time></trkpt><trkpt lat="12.4954986759" lon="37.4388558883"><ele>1975.65</ele><time>2015-04-08T06:28:30Z</time></trkpt><trkpt lat="12.4918110576" lon="37.4404826481"><ele>1980.93</ele><time>2015-04-08T06:28:35Z</time></trkpt><trkpt lat="12.4911975861" lon="37.4407913536"><ele>1980.93</ele><time>2015-04-08T06:28:36Z</time></trkpt><trkpt lat="12.4886059854" lon="37.4445202108"><ele>2370.27</ele><time>2015-04-08T06:28:42Z</time></trkpt><trkpt lat="12.4864119384" lon="37.4478218425"><ele>2423.14</ele><time>2015-04-08T06:28:47Z</time></trkpt><trkpt lat="12.4839035701" lon="37.4528948218"><ele>2476.49</ele><time>2015-04-08T06:28:54Z</time></trkpt><trkpt lat="12.4808670580" lon="37.4599728361"><ele>2531.77</ele><time>2015-04-08T06:29:03Z</time></trkpt><trkpt lat="12.4767885916" lon="37.4693764094"><ele>2629.82</ele><time>2015-04-08T06:29:15Z</time></trkpt><trkpt lat="12.4724937882" lon="37.4804016296"><ele>2766.81</ele><time>2015-04-08T06:29:29Z</time></trkpt><trkpt lat="12.4678647984" lon="37.4920938816"><ele>2915.82</ele><time>2015-04-08T06:29:44Z</time></trkpt><trkpt lat="12.4640141521" lon="37.5014806911"><ele>3016.27</ele><time>2015-04-08T06:29:56Z</time></trkpt><trkpt lat="12.4593423307" lon="37.5132473744"><ele>3148.94</ele><time>2015-04-08T06:30:11Z</time></trkpt><trkpt lat="12.4545079842" lon="37.5250116270"><ele>3278.23</ele><time>2015-04-08T06:30:26Z</time></trkpt><trkpt lat="12.4478470534" lon="37.5407050643"><ele>3450.31</ele><time>2015-04-08T06:30:46Z</time></trkpt><trkpt lat="12.4429748207" lon="37.5527144037"><ele>3568.55</ele><time>2015-04-08T06:31:01Z</time></trkpt><trkpt lat="12.4361159932" lon="37.5700356066"><ele>3719.00</ele><time>2015-04-08T06:31:22Z</time></trkpt><trkpt lat="12.4300855491" lon="37.5849537179"><ele>3859.83</ele><time>2015-04-08T06:31:40Z</time></trkpt><trkpt lat="12.4239889719" lon="37.5998952985"><ele>3998.74</ele><time>2015-04-08T06:31:58Z</time></trkpt><trkpt lat="12.4184002541" lon="37.6142913848"><ele>4120.83</ele><time>2015-04-08T06:32:15Z</time></trkpt><trkpt lat="12.4133632332" lon="37.6271973364"><ele>4219.36</ele><time>2015-04-08T06:32:30Z</time></trkpt><trkpt lat="12.4097665586" lon="37.6361827366"><ele>4257.82</ele><time>2015-04-08T06:32:40Z</time></trkpt><trkpt lat="12.4050140195" lon="37.6483514160"><ele>4307.80</ele><time>2015-04-08T06:32:53Z</time></trkpt><trkpt lat="12.3993191868" lon="37.6628521085"><ele>4375.10</ele><time>2015-04-08T06:33:08Z</time></trkpt><trkpt lat="12.3936971091" lon="37.6777376980"><ele>4457.29</ele><time>2015-04-08T06:33:23Z</time></trkpt><trkpt lat="12.3861622810" lon="37.6979711093"><ele>4578.90</ele><time>2015-04-08T06:33:43Z</time></trkpt><trkpt lat="12.3778021708" lon="37.7205706481"><ele>4722.13</ele><time>2015-04-08T06:34:05Z</time></trkpt><trkpt lat="12.3702380899" lon="37.7400618419"><ele>4853.35</ele><time>2015-04-08T06:34:24Z</time></trkpt><trkpt lat="12.3611453176" lon="37.7626375761"><ele>4992.26</ele><time>2015-04-08T06:34:46Z</time></trkpt><trkpt lat="12.3518984858" lon="37.7854672819"><ele>5119.16</ele><time>2015-04-08T06:35:08Z</time></trkpt><trkpt lat="12.3428011034" lon="37.8075242601"><ele>5237.88</ele><time>2015-04-08T06:35:29Z</time></trkpt><trkpt lat="12.3334643338" lon="37.8298046160"><ele>5354.20</ele><time>2015-04-08T06:35:50Z</time></trkpt><trkpt lat="12.3213680740" lon="37.8587365989"><ele>5506.57</ele><time>2015-04-08T06:36:17Z</time></trkpt><trkpt lat="12.3111105524" lon="37.8837297577"><ele>5631.54</ele><time>2015-04-08T06:36:40Z</time></trkpt><trkpt lat="12.3000559118" lon="37.9111188836"><ele>5767.57</ele><time>2015-04-08T06:37:05Z</time></trkpt><trkpt lat="12.2883067466" lon="37.9408396874"><ele>5918.49</ele><time>2015-04-08T06:37:32Z</time></trkpt><trkpt lat="12.2777005378" lon="37.9669755511"><ele>6060.29</ele><time>2015-04-08T06:37:56Z</time></trkpt><trkpt lat="12.2698985785" lon="37.9866021127"><ele>6154.50</ele><time>2015-04-08T06:38:14Z</time></trkpt><trkpt lat="12.2635786235" lon="38.0022113957"><ele>6186.70</ele><time>2015-04-08T06:38:28Z</time></trkpt><trkpt lat="12.2579728067" lon="38.0160290468"><ele>6189.59</ele><time>2015-04-08T06:38:40Z</time></trkpt><trkpt lat="12.2522755433" lon="38.0303009972"><ele>6186.22</ele><time>2015-04-08T06:38:52Z</time></trkpt><trkpt lat="12.2459842544" lon="38.0461864639"><ele>6182.86</ele><time>2015-04-08T06:39:05Z</time></trkpt><trkpt lat="12.2423314210" lon="38.0562810414"><ele>6181.41</ele><time>2015-04-08T06:39:13Z</time></trkpt><trkpt lat="12.2381618433" lon="38.0692637712"><ele>6180.93</ele><time>2015-04-08T06:39:23Z</time></trkpt><trkpt lat="12.2324412782" lon="38.0879011843"><ele>6180.93</ele><time>2015-04-08T06:39:37Z</time></trkpt><trkpt lat="12.2258260287" lon="38.1095558312"><ele>6179.49</ele><time>2015-04-08T06:39:53Z</time></trkpt><trkpt lat="12.2185335215" lon="38.1330502219"><ele>6179.01</ele><time>2015-04-08T06:40:10Z</time></trkpt><trkpt lat="12.2124927677" lon="38.1528196111"><ele>6176.13</ele><time>2015-04-08T06:40:24Z</time></trkpt><trkpt lat="12.2065582965" lon="38.1728941016"><ele>6168.92</ele><time>2015-04-08T06:40:38Z</time></trkpt><trkpt lat="12.2009286750" lon="38.1901600678"><ele>6165.07</ele><time>2015-04-08T06:40:50Z</time></trkpt><trkpt lat="12.1922629606" lon="38.2163391821"><ele>6166.51</ele><time>2015-04-08T06:41:08Z</time></trkpt><trkpt lat="12.1802052576" lon="38.2531394251"><ele>6167.00</ele><time>2015-04-08T06:41:33Z</time></trkpt><trkpt lat="12.1747864410" lon="38.2693809550"><ele>6129.50</ele><time>2015-04-08T06:41:44Z</time></trkpt><trkpt lat="12.1686415002" lon="38.2876760513"><ele>6045.39</ele><time>2015-04-08T06:41:56Z</time></trkpt><trkpt lat="12.1614016313" lon="38.3093089890"><ele>5942.05</ele><time>2015-04-08T06:42:10Z</time></trkpt><trkpt lat="12.1548662614" lon="38.3300174866"><ele>5807.46</ele><time>2015-04-08T06:42:23Z</time></trkpt><trkpt lat="12.1505527664" lon="38.3425278962"><ele>5728.63</ele><time>2015-04-08T06:42:31Z</time></trkpt><trkpt lat="12.1447229013" lon="38.3579197526"><ele>5630.58</ele><time>2015-04-08T06:42:41Z</time></trkpt><trkpt lat="12.1393327508" lon="38.3726337645"><ele>5536.37</ele><time>2015-04-08T06:42:51Z</time></trkpt><trkpt lat="12.1353942621" lon="38.3845901303"><ele>5463.31</ele><time>2015-04-08T06:42:59Z</time></trkpt><trkpt lat="12.1325755958" lon="38.3950986061"><ele>5400.82</ele><time>2015-04-08T06:43:06Z</time></trkpt><trkpt lat="12.1294322982" lon="38.4084980004"><ele>5323.44</ele><time>2015-04-08T06:43:15Z</time></trkpt><trkpt lat="12.1246669348" lon="38.4289693739"><ele>5205.20</ele><time>2015-04-08T06:43:29Z</time></trkpt><trkpt lat="12.1210033726" lon="38.4432836529"><ele>5112.43</ele><time>2015-04-08T06:43:39Z</time></trkpt><trkpt lat="12.1184344869" lon="38.4516545758"><ele>5059.56</ele><time>2015-04-08T06:43:45Z</time></trkpt><trkpt lat="12.1149169374" lon="38.4611021541"><ele>4998.51</ele><time>2015-04-08T06:43:52Z</time></trkpt><trkpt lat="12.1087396424" lon="38.4771121759"><ele>4904.30</ele><time>2015-04-08T06:44:04Z</time></trkpt><trkpt lat="12.1041331999" lon="38.4904039465"><ele>4828.36</ele><time>2015-04-08T06:44:14Z</time></trkpt><trkpt lat="12.1014639828" lon="38.4997450747"><ele>4775.49</ele><time>2015-04-08T06:44:21Z</time></trkpt><trkpt lat="12.0971261803" lon="38.5170609131"><ele>4680.80</ele><time>2015-04-08T06:44:34Z</time></trkpt><trkpt lat="12.0941184182" lon="38.5275220312"><ele>4621.68</ele><time>2015-04-08T06:44:42Z</time></trkpt><trkpt lat="12.0909941476" lon="38.5364042502"><ele>4567.84</ele><time>2015-04-08T06:44:49Z</time></trkpt><trkpt lat="12.0857026521" lon="38.5499093402"><ele>4489.97</ele><time>2015-04-08T06:45:00Z</time></trkpt><trkpt lat="12.0806569979" lon="38.5633182898"><ele>4412.59</ele><time>2015-04-08T06:45:11Z</time></trkpt><trkpt lat="12.0757140219" lon="38.5779821780"><ele>4325.11</ele><time>2015-04-08T06:45:23Z</time></trkpt><trkpt lat="12.0712680928" lon="38.5925364308"><ele>4241.95</ele><time>2015-04-08T06:45:35Z</time></trkpt><trkpt lat="12.0668248460" lon="38.6081378348"><ele>4150.63</ele><time>2015-04-08T06:45:48Z</time></trkpt><trkpt lat="12.0622706227" lon="38.6245780997"><ele>4058.82</ele><time>2015-04-08T06:46:02Z</time></trkpt><trkpt lat="12.0577945188" lon="38.6393622681"><ele>3974.71</ele><time>2015-04-08T06:46:15Z</time></trkpt><trkpt lat="12.0531484298" lon="38.6538290977"><ele>3893.96</ele><time>2015-04-08T06:46:28Z</time></trkpt><trkpt lat="12.0476063155" lon="38.6709410045"><ele>3798.79</ele><time>2015-04-08T06:46:44Z</time></trkpt><trkpt lat="12.0417967346" lon="38.6887530517"><ele>3696.89</ele><time>2015-04-08T06:47:01Z</time></trkpt><trkpt lat="12.0364209171" lon="38.7050799932"><ele>3604.12</ele><time>2015-04-08T06:47:17Z</time></trkpt><trkpt lat="12.0279645827" lon="38.7317353673"><ele>3456.56</ele><time>2015-04-08T06:47:43Z</time></trkpt><trkpt lat="12.0197878685" lon="38.7575578317"><ele>3313.80</ele><time>2015-04-08T06:48:08Z</time></trkpt><trkpt lat="12.0125844609" lon="38.7803488970"><ele>3187.39</ele><time>2015-04-08T06:48:30Z</time></trkpt><trkpt lat="12.0086093433" lon="38.7939600181"><ele>3115.77</ele><time>2015-04-08T06:48:43Z</time></trkpt><trkpt lat="12.0047236606" lon="38.8073369488"><ele>3033.58</ele><time>2015-04-08T06:48:56Z</time></trkpt><trkpt lat="11.9994087797" lon="38.8248651847"><ele>2901.88</ele><time>2015-04-08T06:49:13Z</time></trkpt><trkpt lat="11.9945509639" lon="38.8399915863"><ele>2770.18</ele><time>2015-04-08T06:49:28Z</time></trkpt><trkpt lat="11.9916733727" lon="38.8485755771"><ele>2695.67</ele><time>2015-04-08T06:49:37Z</time></trkpt><trkpt lat="11.9901695754" lon="38.8541994989"><ele>2648.09</ele><time>2015-04-08T06:49:43Z</time></trkpt><trkpt lat="11.9892603066" lon="38.8597782422"><ele>2604.83</ele><time>2015-04-08T06:49:49Z</time></trkpt><trkpt lat="11.9883318432" lon="38.8688988425"><ele>2538.98</ele><time>2015-04-08T06:49:59Z</time></trkpt><trkpt lat="11.9876885321" lon="38.8757955562"><ele>2493.80</ele><time>2015-04-08T06:50:07Z</time></trkpt><trkpt lat="11.9868165627" lon="38.8830615766"><ele>2453.42</ele><time>2015-04-08T06:50:16Z</time></trkpt><trkpt lat="11.9857304357" lon="38.8933668751"><ele>2392.86</ele><time>2015-04-08T06:50:29Z</time></trkpt><trkpt lat="11.9848660938" lon="38.9011110831"><ele>2348.16</ele><time>2015-04-08T06:50:39Z</time></trkpt><trkpt lat="11.9836648833" lon="38.9106518682"><ele>2290.00</ele><time>2015-04-08T06:50:52Z</time></trkpt><trkpt lat="11.9826521818" lon="38.9190729149"><ele>2234.24</ele><time>2015-04-08T06:51:04Z</time></trkpt><trkpt lat="11.9817062840" lon="38.9272098150"><ele>2179.93</ele><time>2015-04-08T06:51:16Z</time></trkpt><trkpt lat="11.9806604739" lon="38.9366704691"><ele>2120.81</ele><time>2015-04-08T06:51:30Z</time></trkpt><trkpt lat="11.9793725945" lon="38.9476714656"><ele>2054.47</ele><time>2015-04-08T06:51:46Z</time></trkpt><trkpt lat="11.9781887345" lon="38.9573560841"><ele>1996.80</ele><time>2015-04-08T06:52:00Z</time></trkpt><trkpt lat="11.9770762045" lon="38.9650383499"><ele>1950.17</ele><time>2015-04-08T06:52:11Z</time></trkpt><trkpt lat="11.9762603939" lon="38.9719243348"><ele>1910.76</ele><time>2015-04-08T06:52:21Z</time></trkpt><trkpt lat="11.9759018999" lon="38.9762861095"><ele>1894.90</ele><time>2015-04-08T06:52:28Z</time></trkpt><trkpt lat="11.9755775202" lon="38.9788425900"><ele>1890.09</ele><time>2015-04-08T06:52:33Z</time></trkpt><trkpt lat="11.9753325172" lon="38.9808427636"><ele>1888.65</ele><time>2015-04-08T06:52:38Z</time></trkpt><trkpt lat="11.9751041941" lon="38.9823934995"><ele>1895.38</ele><time>2015-04-08T06:52:43Z</time></trkpt><trkpt lat="11.9749560859" lon="38.9836174250"><ele>1899.70</ele><time>2015-04-08T06:52:49Z</time></trkpt><trkpt lat="11.9748131745" lon="38.9842754882"><ele>1909.32</ele><time>2015-04-08T06:52:55Z</time></trkpt><trkpt lat="11.9746453688" lon="38.9845857024"><ele>1920.37</ele><time>2015-04-08T06:53:03Z</time></trkpt><trkpt lat="11.9747259188" lon="38.9846218284"><ele>1931.91</ele><time>2015-04-08T06:53:14Z</time></trkpt><trkpt lat="11.9748785533" lon="38.9841959439"><ele>1940.08</ele><time>2015-04-08T06:53:26Z</time></trkpt><trkpt lat="11.9753823057" lon="38.9838635176"><ele>1942.48</ele><time>2015-04-08T06:53:35Z</time></trkpt><trkpt lat="11.9755368680" lon="38.9838677086"><ele>1942.48</ele><time>2015-04-08T06:53:37Z</time></trkpt><trkpt lat="11.9760654308" lon="38.9839322492"><ele>1942.96</ele><time>2015-04-08T06:53:44Z</time></trkpt><trkpt lat="11.9765154552" lon="38.9837947022"><ele>1945.36</ele><time>2015-04-08T06:53:51Z</time></trkpt><trkpt lat="11.9770209678" lon="38.9833162632"><ele>1950.17</ele><time>2015-04-08T06:54:03Z</time></trkpt><trkpt lat="11.9774246402" lon="38.9832707494"><ele>1952.09</ele><time>2015-04-08T06:54:14Z</time></trkpt><trkpt lat="11.9775588345" lon="38.9835447539"><ele>1952.57</ele><time>2015-04-08T06:54:25Z</time></trkpt><trkpt lat="11.9775200263" lon="38.9836450014"><ele>1953.54</ele><time>2015-04-08T06:54:39Z</time></trkpt><trkpt lat="11.9775009155" lon="38.9836499467"><ele>1954.02</ele><time>2015-04-08T06:55:01Z</time></trkpt><trkpt lat="11.9775011670" lon="38.9836347755"><ele>1954.98</ele><time>2015-04-08T06:55:24Z</time></trkpt><trkpt lat="11.9775123149" lon="38.9836321771"><ele>1955.94</ele><time>2015-04-08T06:55:53Z</time></trkpt><trkpt lat="11.9775248040" lon="38.9836247172"><ele>1955.94</ele><time>2015-04-08T06:56:13Z</time></trkpt><trkpt lat="11.9775470160" lon="38.9836395532"><ele>1953.06</ele><time>2015-04-08T06:56:40Z</time></trkpt><trkpt lat="11.9775232952" lon="38.9836311713"><ele>1949.21</ele><time>2015-04-08T06:57:07Z</time></trkpt><trkpt lat="11.9775462616" lon="38.9836488571"><ele>1946.81</ele><time>2015-04-08T06:57:36Z</time></trkpt><trkpt lat="11.9775151648" lon="38.9836623520"><ele>1949.69</ele><time>2015-04-08T06:58:00Z</time></trkpt><trkpt lat="11.9775097165" lon="38.9836977236"><ele>1952.57</ele><time>2015-04-08T06:58:24Z</time></trkpt><trkpt lat="11.9775211159" lon="38.9837252162"><ele>1953.06</ele><time>2015-04-08T06:58:28Z</time></trkpt><trkpt lat="11.9776249677" lon="38.9838782698"><ele>1954.02</ele><time>2015-04-08T06:58:43Z</time></trkpt><trkpt lat="11.9776128978" lon="38.9839027449"><ele>1953.06</ele><time>2015-04-08T06:58:58Z</time></trkpt><trkpt lat="11.9776255544" lon="38.9839282259"><ele>1953.54</ele><time>2015-04-08T06:59:06Z</time></trkpt><trkpt lat="11.9776333496" lon="38.9839329198"><ele>1952.57</ele><time>2015-04-08T06:59:09Z</time></trkpt><trkpt lat="11.9776943699" lon="38.9839324169"><ele>1949.21</ele><time>2015-04-08T06:59:22Z</time></trkpt><trkpt lat="11.9777030870" lon="38.9839305729"><ele>1948.25</ele><time>2015-04-08T06:59:44Z</time></trkpt><trkpt lat="11.9777040929" lon="38.9839486778"><ele>1950.17</ele><time>2015-04-08T06:59:58Z</time></trkpt><trkpt lat="11.9777195156" lon="38.9839521144"><ele>1950.17</ele><time>2015-04-08T07:00:11Z</time></trkpt><trkpt lat="11.9777545519" lon="38.9839524496"><ele>1950.17</ele><time>2015-04-08T07:00:18Z</time></trkpt><trkpt lat="11.9778143149" lon="38.9839711413"><ele>1950.17</ele><time>2015-04-08T07:00:26Z</time></trkpt><trkpt lat="11.9778736588" lon="38.9839720633"><ele>1948.25</ele><time>2015-04-08T07:00:39Z</time></trkpt><trkpt lat="11.9778767601" lon="38.9839780144"><ele>1946.33</ele><time>2015-04-08T07:00:55Z</time></trkpt><trkpt lat="11.9778762572" lon="38.9839643519"><ele>1949.21</ele><time>2015-04-08T07:01:14Z</time></trkpt><trkpt lat="11.9779043365" lon="38.9839619212"><ele>1948.73</ele><time>2015-04-08T07:01:24Z</time></trkpt><trkpt lat="11.9779163226" lon="38.9839780983"><ele>1950.65</ele><time>2015-04-08T07:01:39Z</time></trkpt><trkpt lat="11.9779408816" lon="38.9839927666"><ele>1950.17</ele><time>2015-04-08T07:01:51Z</time></trkpt><trkpt lat="11.9779853895" lon="38.9839982986"><ele>1948.25</ele><time>2015-04-08T07:02:06Z</time></trkpt><trkpt lat="11.9778779335" lon="38.9839578979"><ele>1946.33</ele><time>2015-04-08T07:02:27Z</time></trkpt><trkpt lat="11.9779273868" lon="38.9839278068"><ele>1946.33</ele><time>2015-04-08T07:02:45Z</time></trkpt><trkpt lat="11.9780501816" lon="38.9838983864"><ele>1945.36</ele><time>2015-04-08T07:03:07Z</time></trkpt><trkpt lat="11.9780288916" lon="38.9838791080"><ele>1945.85</ele><time>2015-04-08T07:03:31Z</time></trkpt><trkpt lat="11.9779953640" lon="38.9839547127"><ele>1948.25</ele><time>2015-04-08T07:03:53Z</time></trkpt><trkpt lat="11.9779937714" lon="38.9840240311"><ele>1950.17</ele><time>2015-04-08T07:04:21Z</time></trkpt><trkpt lat="11.9779780973" lon="38.9840376098"><ele>1957.86</ele><time>2015-04-08T07:04:45Z</time></trkpt><trkpt lat="11.9779898319" lon="38.9840296470"><ele>1964.11</ele><time>2015-04-08T07:05:09Z</time></trkpt><trkpt lat="11.9780467451" lon="38.9841196686"><ele>1967.48</ele><time>2015-04-08T07:05:32Z</time></trkpt><trkpt lat="11.9779956993" lon="38.9841268770"><ele>1967.96</ele><time>2015-04-08T07:05:58Z</time></trkpt><trkpt lat="11.9779314939" lon="38.9840609115"><ele>1968.92</ele><time>2015-04-08T07:06:18Z</time></trkpt><trkpt lat="11.9780311547" lon="38.9841387793"><ele>1969.40</ele><time>2015-04-08T07:06:38Z</time></trkpt><trkpt lat="11.9780238625" lon="38.9841572195"><ele>1969.88</ele><time>2015-04-08T07:07:04Z</time></trkpt><trkpt lat="11.9780345075" lon="38.9840836264"><ele>1970.36</ele><time>2015-04-08T07:07:28Z</time></trkpt><trkpt lat="11.9780194201" lon="38.9840475004"><ele>1970.84</ele><time>2015-04-08T07:07:54Z</time></trkpt><trkpt lat="11.9780039135" lon="38.9840135537"><ele>1970.84</ele><time>2015-04-08T07:07:59Z</time></trkpt><trkpt lat="11.9779393729" lon="38.9839070197"><ele>1970.84</ele><time>2015-04-08T07:08:24Z</time></trkpt><trkpt lat="11.9778387900" lon="38.9840605762"><ele>1973.72</ele><time>2015-04-08T07:08:41Z</time></trkpt><trkpt lat="11.9778656121" lon="38.9839700516"><ele>1957.86</ele><time>2015-04-08T07:08:58Z</time></trkpt><trkpt lat="11.9778853096" lon="38.9839744102"><ele>1953.06</ele><time>2015-04-08T07:09:14Z</time></trkpt><trkpt lat="11.9778725691" lon="38.9839584008"><ele>1951.61</ele><time>2015-04-08T07:09:28Z</time></trkpt><trkpt lat="11.9778830465" lon="38.9840288926"><ele>1950.65</ele><time>2015-04-08T07:09:42Z</time></trkpt><trkpt lat="11.9779218547" lon="38.9839878213"><ele>1949.69</ele><time>2015-04-08T07:09:54Z</time></trkpt><trkpt lat="11.9779431447" lon="38.9839783497"><ele>1949.21</ele><time>2015-04-08T07:10:13Z</time></trkpt><trkpt lat="11.9779640157" lon="38.9839783497"><ele>1946.81</ele><time>2015-04-08T07:10:27Z</time></trkpt><trkpt lat="11.9779783487" lon="38.9840000588"><ele>1941.04</ele><time>2015-04-08T07:10:52Z</time></trkpt><trkpt lat="11.9779315777" lon="38.9840833750"><ele>1940.56</ele><time>2015-04-08T07:11:15Z</time></trkpt><trkpt lat="11.9780224375" lon="38.9842530247"><ele>1941.04</ele><time>2015-04-08T07:11:37Z</time></trkpt><trkpt lat="11.9782189094" lon="38.9840697125"><ele>1946.81</ele><time>2015-04-08T07:11:56Z</time></trkpt><trkpt lat="11.9782358408" lon="38.9841729775"><ele>1952.57</ele><time>2015-04-08T07:12:10Z</time></trkpt><trkpt lat="11.9782318175" lon="38.9842117019"><ele>1953.54</ele><time>2015-04-08T07:12:14Z</time></trkpt><trkpt lat="11.9782629982" lon="38.9843438007"><ele>1954.98</ele><time>2015-04-08T07:12:28Z</time></trkpt><trkpt lat="11.9783545285" lon="38.9843855426"><ele>1954.98</ele><time>2015-04-08T07:12:42Z</time></trkpt><trkpt lat="11.9784071669" lon="38.9843903203"><ele>1954.02</ele><time>2015-04-08T07:12:57Z</time></trkpt><trkpt lat="11.9784025569" lon="38.9843685273"><ele>1953.54</ele><time>2015-04-08T07:13:13Z</time></trkpt><trkpt lat="11.9784056582" lon="38.9843805134"><ele>1954.50</ele><time>2015-04-08T07:13:31Z</time></trkpt><trkpt lat="11.9784003776" lon="38.9843847044"><ele>1955.46</ele><time>2015-04-08T07:13:48Z</time></trkpt><trkpt lat="11.9783955999" lon="38.9844011329"><ele>1957.38</ele><time>2015-04-08T07:14:09Z</time></trkpt><trkpt lat="11.9783899840" lon="38.9843998756"><ele>1957.86</ele><time>2015-04-08T07:14:31Z</time></trkpt><trkpt lat="11.9783814345" lon="38.9843870513"><ele>1956.90</ele><time>2015-04-08T07:14:52Z</time></trkpt><trkpt lat="11.9783966895" lon="38.9843938407"><ele>1957.38</ele><time>2015-04-08T07:15:12Z</time></trkpt><trkpt lat="11.9784173090" lon="38.9843879733"><ele>1958.82</ele><time>2015-04-08T07:15:46Z</time></trkpt><trkpt lat="11.9784166384" lon="38.9843537752"><ele>1958.82</ele><time>2015-04-08T07:16:03Z</time></trkpt><trkpt lat="11.9784131180" lon="38.9843352512"><ele>1958.34</ele><time>2015-04-08T07:16:07Z</time></trkpt><trkpt lat="11.9784237631" lon="38.9843161404"><ele>1956.42</ele><time>2015-04-08T07:16:18Z</time></trkpt><trkpt lat="11.9784063287" lon="38.9843334071"><ele>1955.46</ele><time>2015-04-08T07:16:38Z</time></trkpt><trkpt lat="11.9783859607" lon="38.9843007177"><ele>1953.06</ele><time>2015-04-08T07:16:59Z</time></trkpt><trkpt lat="11.9783744775" lon="38.9842925873"><ele>1954.50</ele><time>2015-04-08T07:17:43Z</time></trkpt><trkpt lat="11.9783847872" lon="38.9842945989"><ele>1954.50</ele><time>2015-04-08T07:18:31Z</time></trkpt><trkpt lat="11.9783820212" lon="38.9843118656"><ele>1955.94</ele><time>2015-04-08T07:19:12Z</time></trkpt><trkpt lat="11.9783802610" lon="38.9843237679"><ele>1958.34</ele><time>2015-04-08T07:19:57Z</time></trkpt><trkpt lat="11.9783759024" lon="38.9843086805"><ele>1958.82</ele><time>2015-04-08T07:20:37Z</time></trkpt><trkpt lat="11.9783897325" lon="38.9842967782"><ele>1958.34</ele><time>2015-04-08T07:21:20Z</time></trkpt><trkpt lat="11.9783818536" lon="38.9842961915"><ele>1962.19</ele><time>2015-04-08T07:22:06Z</time></trkpt><trkpt lat="11.9783795904" lon="38.9842917491"><ele>1962.67</ele><time>2015-04-08T07:22:49Z</time></trkpt><trkpt lat="11.9783805124" lon="38.9842942636"><ele>1958.34</ele><time>2015-04-08T07:23:34Z</time></trkpt><trkpt lat="11.9783938397" lon="38.9842981193"><ele>1958.34</ele><time>2015-04-08T07:24:14Z</time></trkpt><trkpt lat="11.9783926662" lon="38.9843173977"><ele>1957.38</ele><time>2015-04-08T07:24:53Z</time></trkpt><trkpt lat="11.9784052391" lon="38.9843779150"><ele>1956.42</ele><time>2015-04-08T07:25:02Z</time></trkpt><trkpt lat="11.9785472285" lon="38.9843482431"><ele>1955.94</ele><time>2015-04-08T07:25:09Z</time></trkpt><trkpt lat="11.9788113423" lon="38.9843099378"><ele>1954.98</ele><time>2015-04-08T07:25:22Z</time></trkpt><trkpt lat="11.9792932179" lon="38.9844198246"><ele>1954.02</ele><time>2015-04-08T07:25:33Z</time></trkpt><trkpt lat="11.9800035004" lon="38.9848474693"><ele>1955.46</ele><time>2015-04-08T07:25:45Z</time></trkpt><trkpt lat="11.9800709747" lon="38.9848966710"><ele>1955.94</ele><time>2015-04-08T07:25:46Z</time></trkpt><trkpt lat="11.9806476496" lon="38.9855510462"><ele>1959.78</ele><time>2015-04-08T07:25:57Z</time></trkpt><trkpt lat="11.9809974264" lon="38.9859411400"><ele>1962.19</ele><time>2015-04-08T07:26:04Z</time></trkpt><trkpt lat="11.9809253421" lon="38.9864190761"><ele>1965.07</ele><time>2015-04-08T07:26:11Z</time></trkpt><trkpt lat="11.9799069408" lon="38.9873645548"><ele>1966.99</ele><time>2015-04-08T07:26:26Z</time></trkpt><trkpt lat="11.9785168860" lon="38.9879856538"><ele>1966.03</ele><time>2015-04-08T07:26:40Z</time></trkpt><trkpt lat="11.9778195117" lon="38.9883826207"><ele>1965.07</ele><time>2015-04-08T07:26:48Z</time></trkpt><trkpt lat="11.9775318448" lon="38.9888697769"><ele>1962.67</ele><time>2015-04-08T07:26:54Z</time></trkpt><trkpt lat="11.9771619514" lon="38.9900558162"><ele>1962.67</ele><time>2015-04-08T07:27:06Z</time></trkpt><trkpt lat="11.9762620702" lon="38.9910679311"><ele>1966.99</ele><time>2015-04-08T07:27:19Z</time></trkpt><trkpt lat="11.9752788730" lon="38.9925506059"><ele>1971.32</ele><time>2015-04-08T07:27:35Z</time></trkpt><trkpt lat="11.9744869508" lon="38.9941252302"><ele>1975.65</ele><time>2015-04-08T07:27:51Z</time></trkpt><trkpt lat="11.9740220066" lon="38.9956940711"><ele>1978.53</ele><time>2015-04-08T07:28:06Z</time></trkpt><trkpt lat="11.9737902470" lon="38.9961580932"><ele>1980.45</ele><time>2015-04-08T07:28:11Z</time></trkpt><trkpt lat="11.9726026990" lon="38.9976414386"><ele>1980.93</ele><time>2015-04-08T07:28:28Z</time></trkpt><trkpt lat="11.9718426280" lon="38.9988113847"><ele>1983.82</ele><time>2015-04-08T07:28:40Z</time></trkpt><trkpt lat="11.9713682123" lon="39.0000250842"><ele>1988.14</ele><time>2015-04-08T07:28:53Z</time></trkpt><trkpt lat="11.9711626880" lon="39.0004844964"><ele>1990.55</ele><time>2015-04-08T07:29:01Z</time></trkpt><trkpt lat="11.9708981551" lon="39.0006956365"><ele>1993.43</ele><time>2015-04-08T07:29:07Z</time></trkpt><trkpt lat="11.9699178077" lon="39.0011185035"><ele>2002.56</ele><time>2015-04-08T07:29:23Z</time></trkpt><trkpt lat="11.9692279771" lon="39.0016158856"><ele>2004.97</ele><time>2015-04-08T07:29:32Z</time></trkpt><trkpt lat="11.9679320510" lon="39.0020075720"><ele>2001.60</ele><time>2015-04-08T07:29:44Z</time></trkpt><trkpt lat="11.9668489415" lon="39.0021840110"><ele>2000.16</ele><time>2015-04-08T07:29:53Z</time></trkpt><trkpt lat="11.9664316066" lon="39.0023615398"><ele>2001.12</ele><time>2015-04-08T07:29:57Z</time></trkpt><trkpt lat="11.9651655201" lon="39.0032882430"><ele>2004.97</ele><time>2015-04-08T07:30:11Z</time></trkpt><trkpt lat="11.9648215268" lon="39.0035834536"><ele>2004.97</ele><time>2015-04-08T07:30:15Z</time></trkpt><trkpt lat="11.9645854924" lon="39.0039901435"><ele>2003.04</ele><time>2015-04-08T07:30:19Z</time></trkpt><trkpt lat="11.9642832410" lon="39.0048066247"><ele>1999.20</ele><time>2015-04-08T07:30:26Z</time></trkpt><trkpt lat="11.9639605377" lon="39.0051649511"><ele>1998.72</ele><time>2015-04-08T07:30:30Z</time></trkpt><trkpt lat="11.9630119577" lon="39.0058010537"><ele>2002.56</ele><time>2015-04-08T07:30:40Z</time></trkpt><trkpt lat="11.9626957085" lon="39.0063046385"><ele>2003.52</ele><time>2015-04-08T07:30:45Z</time></trkpt><trkpt lat="11.9620041177" lon="39.0080541931"><ele>2003.04</ele><time>2015-04-08T07:30:59Z</time></trkpt><trkpt lat="11.9607892446" lon="39.0099578071"><ele>2000.16</ele><time>2015-04-08T07:31:14Z</time></trkpt><trkpt lat="11.9600625336" lon="39.0110600274"><ele>1997.28</ele><time>2015-04-08T07:31:24Z</time></trkpt><trkpt lat="11.9597791415" lon="39.0116778575"><ele>1996.80</ele><time>2015-04-08T07:31:32Z</time></trkpt><trkpt lat="11.9594921451" lon="39.0120618325"><ele>1995.35</ele><time>2015-04-08T07:31:37Z</time></trkpt><trkpt lat="11.9592680130" lon="39.0122738108"><ele>1994.87</ele><time>2015-04-08T07:31:40Z</time></trkpt><trkpt lat="11.9590846170" lon="39.0129448660"><ele>1996.80</ele><time>2015-04-08T07:31:47Z</time></trkpt><trkpt lat="11.9592646603" lon="39.0133150946"><ele>1999.20</ele><time>2015-04-08T07:31:51Z</time></trkpt><trkpt lat="11.9601512980" lon="39.0147341508"><ele>2009.29</ele><time>2015-04-08T07:32:07Z</time></trkpt><trkpt lat="11.9608015660" lon="39.0162878204"><ele>2016.50</ele><time>2015-04-08T07:32:22Z</time></trkpt><trkpt lat="11.9609723892" lon="39.0176241472"><ele>2021.31</ele><time>2015-04-08T07:32:33Z</time></trkpt><trkpt lat="11.9615671691" lon="39.0184723120"><ele>2024.19</ele><time>2015-04-08T07:32:42Z</time></trkpt><trkpt lat="11.9617265929" lon="39.0185880661"><ele>2024.67</ele><time>2015-04-08T07:32:44Z</time></trkpt><trkpt lat="11.9623942953" lon="39.0188852884"><ele>2026.12</ele><time>2015-04-08T07:32:51Z</time></trkpt><trkpt lat="11.9628874026" lon="39.0193482209"><ele>2026.60</ele><time>2015-04-08T07:32:57Z</time></trkpt><trkpt lat="11.9632412028" lon="39.0199582558"><ele>2028.52</ele><time>2015-04-08T07:33:05Z</time></trkpt><trkpt lat="11.9634270296" lon="39.0201917756"><ele>2028.52</ele><time>2015-04-08T07:33:11Z</time></trkpt><trkpt lat="11.9635691866" lon="39.0202664584"><ele>2027.56</ele><time>2015-04-08T07:33:15Z</time></trkpt><trkpt lat="11.9639185444" lon="39.0203313343"><ele>2027.56</ele><time>2015-04-08T07:33:22Z</time></trkpt><trkpt lat="11.9646358676" lon="39.0207553748"><ele>2029.96</ele><time>2015-04-08T07:33:35Z</time></trkpt><trkpt lat="11.9647943694" lon="39.0208495874"><ele>2030.44</ele><time>2015-04-08T07:33:38Z</time></trkpt><trkpt lat="11.9649578165" lon="39.0210120287"><ele>2031.40</ele><time>2015-04-08T07:33:43Z</time></trkpt><trkpt lat="11.9653187413" lon="39.0211990289"><ele>2031.88</ele><time>2015-04-08T07:33:54Z</time></trkpt><trkpt lat="11.9659327995" lon="39.0214882046"><ele>2035.25</ele><time>2015-04-08T07:34:05Z</time></trkpt><trkpt lat="11.9664970692" lon="39.0222041029"><ele>2039.09</ele><time>2015-04-08T07:34:16Z</time></trkpt><trkpt lat="11.9670234527" lon="39.0236590337"><ele>2046.78</ele><time>2015-04-08T07:34:33Z</time></trkpt><trkpt lat="11.9671520311" lon="39.0238370653"><ele>2049.19</ele><time>2015-04-08T07:34:40Z</time></trkpt><trkpt lat="11.9673271291" lon="39.0240359679"><ele>2050.15</ele><time>2015-04-08T07:34:49Z</time></trkpt><trkpt lat="11.9673641771" lon="39.0240756981"><ele>2050.15</ele><time>2015-04-08T07:34:50Z</time></trkpt><trkpt lat="11.9679845218" lon="39.0244279057"><ele>2052.07</ele><time>2015-04-08T07:35:06Z</time></trkpt><trkpt lat="11.9681089930" lon="39.0245861560"><ele>2053.03</ele><time>2015-04-08T07:35:10Z</time></trkpt><trkpt lat="11.9684403297" lon="39.0256926510"><ele>2057.36</ele><time>2015-04-08T07:35:28Z</time></trkpt><trkpt lat="11.9688624423" lon="39.0272179898"><ele>2063.13</ele><time>2015-04-08T07:35:47Z</time></trkpt><trkpt lat="11.9688377995" lon="39.0276324749"><ele>2065.05</ele><time>2015-04-08T07:35:56Z</time></trkpt><trkpt lat="11.9688902702" lon="39.0277970955"><ele>2066.01</ele><time>2015-04-08T07:36:00Z</time></trkpt><trkpt lat="11.9691271428" lon="39.0281069744"><ele>2068.89</ele><time>2015-04-08T07:36:08Z</time></trkpt><trkpt lat="11.9694112055" lon="39.0291258786"><ele>2074.66</ele><time>2015-04-08T07:36:24Z</time></trkpt><trkpt lat="11.9694705494" lon="39.0293181594"><ele>2075.62</ele><time>2015-04-08T07:36:27Z</time></trkpt><trkpt lat="11.9694619160" lon="39.0295577142"><ele>2076.59</ele><time>2015-04-08T07:36:31Z</time></trkpt><trkpt lat="11.9692470878" lon="39.0304888599"><ele>2080.43</ele><time>2015-04-08T07:36:45Z</time></trkpt><trkpt lat="11.9691162463" lon="39.0309643652"><ele>2082.83</ele><time>2015-04-08T07:36:51Z</time></trkpt><trkpt lat="11.9693327509" lon="39.0314021520"><ele>2086.20</ele><time>2015-04-08T07:36:58Z</time></trkpt><trkpt lat="11.9694895763" lon="39.0314226877"><ele>2086.68</ele><time>2015-04-08T07:37:00Z</time></trkpt><trkpt lat="11.9706572592" lon="39.0314837079"><ele>2087.64</ele><time>2015-04-08T07:37:12Z</time></trkpt><trkpt lat="11.9710931182" lon="39.0318697784"><ele>2090.04</ele><time>2015-04-08T07:37:19Z</time></trkpt><trkpt lat="11.9711022545" lon="39.0320569463"><ele>2091.00</ele><time>2015-04-08T07:37:21Z</time></trkpt><trkpt lat="11.9710839819" lon="39.0326862596"><ele>2092.93</ele><time>2015-04-08T07:37:27Z</time></trkpt><trkpt lat="11.9708200358" lon="39.0333281457"><ele>2095.81</ele><time>2015-04-08T07:37:34Z</time></trkpt><trkpt lat="11.9708851632" lon="39.0338492487"><ele>2098.70</ele><time>2015-04-08T07:37:41Z</time></trkpt><trkpt lat="11.9712133985" lon="39.0338541102"><ele>2097.73</ele><time>2015-04-08T07:37:45Z</time></trkpt><trkpt lat="11.9720991980" lon="39.0334384516"><ele>2098.21</ele><time>2015-04-08T07:37:55Z</time></trkpt><trkpt lat="11.9722504076" lon="39.0334149823"><ele>2099.18</ele><time>2015-04-08T07:37:59Z</time></trkpt><trkpt lat="11.9725121744" lon="39.0336422995"><ele>2101.58</ele><time>2015-04-08T07:38:13Z</time></trkpt><trkpt lat="11.9726555888" lon="39.0340835229"><ele>2102.06</ele><time>2015-04-08T07:38:28Z</time></trkpt><trkpt lat="11.9728043675" lon="39.0345752053"><ele>2101.10</ele><time>2015-04-08T07:38:43Z</time></trkpt><trkpt lat="11.9731554855" lon="39.0353362821"><ele>2102.06</ele><time>2015-04-08T07:38:53Z</time></trkpt><trkpt lat="11.9739684463" lon="39.0360715427"><ele>2105.42</ele><time>2015-04-08T07:39:03Z</time></trkpt><trkpt lat="11.9747322053" lon="39.0366921388"><ele>2109.75</ele><time>2015-04-08T07:39:14Z</time></trkpt><trkpt lat="11.9747969974" lon="39.0367540810"><ele>2110.23</ele><time>2015-04-08T07:39:15Z</time></trkpt><trkpt lat="11.9750065450" lon="39.0371359605"><ele>2113.12</ele><time>2015-04-08T07:39:20Z</time></trkpt><trkpt lat="11.9750021864" lon="39.0382647514"><ele>2120.32</ele><time>2015-04-08T07:39:33Z</time></trkpt><trkpt lat="11.9744395092" lon="39.0392775368"><ele>2122.73</ele><time>2015-04-08T07:39:44Z</time></trkpt><trkpt lat="11.9741807599" lon="39.0396165848"><ele>2122.25</ele><time>2015-04-08T07:39:50Z</time></trkpt><trkpt lat="11.9737417996" lon="39.0403572936"><ele>2116.00</ele><time>2015-04-08T07:40:05Z</time></trkpt><trkpt lat="11.9736823719" lon="39.0405661706"><ele>2115.52</ele><time>2015-04-08T07:40:08Z</time></trkpt><trkpt lat="11.9733459223" lon="39.0409744531"><ele>2111.67</ele><time>2015-04-08T07:40:14Z</time></trkpt><trkpt lat="11.9726500567" lon="39.0414498746"><ele>2106.87</ele><time>2015-04-08T07:40:22Z</time></trkpt><trkpt lat="11.9725026190" lon="39.0418782737"><ele>2104.46</ele><time>2015-04-08T07:40:27Z</time></trkpt><trkpt lat="11.9726073090" lon="39.0429817513"><ele>2103.02</ele><time>2015-04-08T07:40:37Z</time></trkpt><trkpt lat="11.9728402421" lon="39.0433626249"><ele>2104.46</ele><time>2015-04-08T07:40:42Z</time></trkpt><trkpt lat="11.9732375443" lon="39.0435792133"><ele>2107.35</ele><time>2015-04-08T07:40:47Z</time></trkpt><trkpt lat="11.9736135565" lon="39.0442817006"><ele>2109.75</ele><time>2015-04-08T07:40:55Z</time></trkpt><trkpt lat="11.9735997263" lon="39.0446119476"><ele>2111.19</ele><time>2015-04-08T07:40:58Z</time></trkpt><trkpt lat="11.9736435637" lon="39.0451415163"><ele>2115.04</ele><time>2015-04-08T07:41:03Z</time></trkpt><trkpt lat="11.9743131101" lon="39.0464998037"><ele>2128.98</ele><time>2015-04-08T07:41:19Z</time></trkpt><trkpt lat="11.9743350707" lon="39.0467906557"><ele>2132.34</ele><time>2015-04-08T07:41:23Z</time></trkpt><trkpt lat="11.9742544368" lon="39.0479486156"><ele>2142.92</ele><time>2015-04-08T07:41:40Z</time></trkpt><trkpt lat="11.9742082525" lon="39.0487272106"><ele>2150.61</ele><time>2015-04-08T07:41:50Z</time></trkpt><trkpt lat="11.9742875453" lon="39.0489997901"><ele>2154.45</ele><time>2015-04-08T07:41:54Z</time></trkpt><trkpt lat="11.9743813388" lon="39.0491886344"><ele>2157.34</ele><time>2015-04-08T07:41:57Z</time></trkpt><trkpt lat="11.9742314704" lon="39.0495761298"><ele>2162.62</ele><time>2015-04-08T07:42:04Z</time></trkpt><trkpt lat="11.9738912489" lon="39.0494436119"><ele>2165.99</ele><time>2015-04-08T07:42:09Z</time></trkpt><trkpt lat="11.9737125468" lon="39.0492822602"><ele>2167.91</ele><time>2015-04-08T07:42:12Z</time></trkpt><trkpt lat="11.9732826389" lon="39.0493036341"><ele>2171.27</ele><time>2015-04-08T07:42:18Z</time></trkpt><trkpt lat="11.9733591657" lon="39.0497055463"><ele>2173.68</ele><time>2015-04-08T07:42:23Z</time></trkpt><trkpt lat="11.9735025801" lon="39.0498390701"><ele>2175.12</ele><time>2015-04-08T07:42:25Z</time></trkpt><trkpt lat="11.9744505733" lon="39.0507028252"><ele>2178.48</ele><time>2015-04-08T07:42:37Z</time></trkpt><trkpt lat="11.9751281664" lon="39.0513393469"><ele>2180.89</ele><time>2015-04-08T07:42:47Z</time></trkpt><trkpt lat="11.9766581990" lon="39.0527621750"><ele>2185.69</ele><time>2015-04-08T07:43:05Z</time></trkpt><trkpt lat="11.9787457958" lon="39.0546797868"><ele>2195.31</ele><time>2015-04-08T07:43:27Z</time></trkpt><trkpt lat="11.9799838867" lon="39.0557394270"><ele>2206.84</ele><time>2015-04-08T07:43:41Z</time></trkpt><trkpt lat="11.9810724445" lon="39.0570435673"><ele>2215.01</ele><time>2015-04-08T07:43:55Z</time></trkpt><trkpt lat="11.9814759493" lon="39.0575124510"><ele>2219.82</ele><time>2015-04-08T07:44:01Z</time></trkpt><trkpt lat="11.9819248840" lon="39.0577017143"><ele>2224.15</ele><time>2015-04-08T07:44:07Z</time></trkpt><trkpt lat="11.9824586436" lon="39.0577317216"><ele>2230.88</ele><time>2015-04-08T07:44:16Z</time></trkpt><trkpt lat="11.9827669300" lon="39.0580389183"><ele>2234.24</ele><time>2015-04-08T07:44:23Z</time></trkpt><trkpt lat="11.9827686064" lon="39.0581071470"><ele>2235.20</ele><time>2015-04-08T07:44:24Z</time></trkpt><trkpt lat="11.9827482384" lon="39.0588306729"><ele>2241.93</ele><time>2015-04-08T07:44:34Z</time></trkpt><trkpt lat="11.9830442872" lon="39.0591464192"><ele>2247.70</ele><time>2015-04-08T07:44:41Z</time></trkpt><trkpt lat="11.9833439402" lon="39.0588721633"><ele>2253.95</ele><time>2015-04-08T07:44:47Z</time></trkpt><trkpt lat="11.9835679047" lon="39.0586030204"><ele>2257.31</ele><time>2015-04-08T07:44:52Z</time></trkpt><trkpt lat="11.9844661932" lon="39.0583901200"><ele>2265.48</ele><time>2015-04-08T07:45:05Z</time></trkpt><trkpt lat="11.9849715382" lon="39.0583184548"><ele>2271.25</ele><time>2015-04-08T07:45:15Z</time></trkpt><trkpt lat="11.9857673161" lon="39.0582184587"><ele>2279.90</ele><time>2015-04-08T07:45:34Z</time></trkpt><trkpt lat="11.9862872455" lon="39.0578400157"><ele>2283.75</ele><time>2015-04-08T07:45:44Z</time></trkpt><trkpt lat="11.9871593826" lon="39.0568763483"><ele>2285.67</ele><time>2015-04-08T07:46:00Z</time></trkpt><trkpt lat="11.9873156212" lon="39.0567341074"><ele>2286.15</ele><time>2015-04-08T07:46:03Z</time></trkpt><trkpt lat="11.9877460320" lon="39.0565896872"><ele>2286.63</ele><time>2015-04-08T07:46:09Z</time></trkpt><trkpt lat="11.9882831443" lon="39.0566239692"><ele>2286.63</ele><time>2015-04-08T07:46:15Z</time></trkpt><trkpt lat="11.9885551371" lon="39.0567867458"><ele>2286.63</ele><time>2015-04-08T07:46:20Z</time></trkpt><trkpt lat="11.9886566419" lon="39.0570791066"><ele>2288.08</ele><time>2015-04-08T07:46:30Z</time></trkpt><trkpt lat="11.9889127091" lon="39.0577551071"><ele>2291.44</ele><time>2015-04-08T07:46:40Z</time></trkpt><trkpt lat="11.9896760490" lon="39.0586569998"><ele>2293.36</ele><time>2015-04-08T07:46:52Z</time></trkpt><trkpt lat="11.9898700900" lon="39.0590537991"><ele>2293.36</ele><time>2015-04-08T07:46:56Z</time></trkpt><trkpt lat="11.9903809670" lon="39.0613144822"><ele>2295.77</ele><time>2015-04-08T07:47:14Z</time></trkpt><trkpt lat="11.9906130619" lon="39.0622322168"><ele>2296.25</ele><time>2015-04-08T07:47:21Z</time></trkpt><trkpt lat="11.9911683630" lon="39.0628127474"><ele>2295.77</ele><time>2015-04-08T07:47:28Z</time></trkpt><trkpt lat="11.9925983995" lon="39.0634449944"><ele>2300.09</ele><time>2015-04-08T07:47:43Z</time></trkpt><trkpt lat="11.9933346659" lon="39.0637745708"><ele>2304.90</ele><time>2015-04-08T07:47:51Z</time></trkpt><trkpt lat="11.9937221613" lon="39.0641988628"><ele>2309.70</ele><time>2015-04-08T07:47:57Z</time></trkpt><trkpt lat="11.9938580319" lon="39.0645041317"><ele>2314.03</ele><time>2015-04-08T07:48:01Z</time></trkpt><trkpt lat="11.9942358881" lon="39.0647167806"><ele>2320.28</ele><time>2015-04-08T07:48:09Z</time></trkpt><trkpt lat="11.9944388140" lon="39.0643618908"><ele>2324.61</ele><time>2015-04-08T07:48:16Z</time></trkpt><trkpt lat="11.9943968207" lon="39.0642225835"><ele>2325.57</ele><time>2015-04-08T07:48:18Z</time></trkpt><trkpt lat="11.9941857643" lon="39.0636418853"><ele>2328.45</ele><time>2015-04-08T07:48:26Z</time></trkpt><trkpt lat="11.9941930566" lon="39.0632232092"><ele>2329.89</ele><time>2015-04-08T07:48:31Z</time></trkpt><trkpt lat="11.9943016022" lon="39.0628626198"><ele>2331.81</ele><time>2015-04-08T07:48:36Z</time></trkpt><trkpt lat="11.9946194440" lon="39.0627315268"><ele>2336.62</ele><time>2015-04-08T07:48:43Z</time></trkpt><trkpt lat="11.9947673846" lon="39.0629960597"><ele>2341.43</ele><time>2015-04-08T07:48:49Z</time></trkpt><trkpt lat="11.9948476832" lon="39.0634075273"><ele>2346.23</ele><time>2015-04-08T07:48:57Z</time></trkpt><trkpt lat="11.9951999746" lon="39.0636034962"><ele>2351.04</ele><time>2015-04-08T07:49:05Z</time></trkpt><trkpt lat="11.9954547845" lon="39.0633227862"><ele>2356.81</ele><time>2015-04-08T07:49:12Z</time></trkpt><trkpt lat="11.9954106957" lon="39.0630467702"><ele>2360.65</ele><time>2015-04-08T07:49:17Z</time></trkpt><trkpt lat="11.9952397048" lon="39.0621535107"><ele>2372.19</ele><time>2015-04-08T07:49:33Z</time></trkpt><trkpt lat="11.9951542094" lon="39.0619225055"><ele>2375.55</ele><time>2015-04-08T07:49:37Z</time></trkpt><trkpt lat="11.9946870022" lon="39.0612557251"><ele>2384.69</ele><time>2015-04-08T07:49:49Z</time></trkpt><trkpt lat="11.9939797372" lon="39.0607303474"><ele>2393.34</ele><time>2015-04-08T07:50:01Z</time></trkpt><trkpt lat="11.9939166214" lon="39.0603256691"><ele>2397.67</ele><time>2015-04-08T07:50:08Z</time></trkpt><trkpt lat="11.9939989317" lon="39.0602250025"><ele>2398.63</ele><time>2015-04-08T07:50:10Z</time></trkpt><trkpt lat="11.9946890976" lon="39.0596065018"><ele>2405.36</ele><time>2015-04-08T07:50:23Z</time></trkpt><trkpt lat="11.9948106352" lon="39.0593681205"><ele>2407.28</ele><time>2015-04-08T07:50:27Z</time></trkpt><trkpt lat="11.9948429894" lon="39.0592247061"><ele>2408.72</ele><time>2015-04-08T07:50:29Z</time></trkpt><trkpt lat="11.9952753279" lon="39.0587874223"><ele>2413.53</ele><time>2015-04-08T07:50:38Z</time></trkpt><trkpt lat="11.9956947584" lon="39.0588864125"><ele>2419.78</ele><time>2015-04-08T07:50:45Z</time></trkpt><trkpt lat="11.9957553595" lon="39.0589841455"><ele>2421.70</ele><time>2015-04-08T07:50:47Z</time></trkpt><trkpt lat="11.9958394300" lon="39.0591742471"><ele>2425.54</ele><time>2015-04-08T07:50:51Z</time></trkpt><trkpt lat="11.9963758718" lon="39.0596782509"><ele>2435.64</ele><time>2015-04-08T07:51:07Z</time></trkpt><trkpt lat="11.9971513655" lon="39.0598402731"><ele>2439.48</ele><time>2015-04-08T07:51:19Z</time></trkpt><trkpt lat="11.9984264206" lon="39.0599876270"><ele>2442.85</ele><time>2015-04-08T07:51:33Z</time></trkpt><trkpt lat="11.9995220192" lon="39.0597484075"><ele>2445.73</ele><time>2015-04-08T07:51:44Z</time></trkpt><trkpt lat="12.0011499524" lon="39.0588745940"><ele>2451.50</ele><time>2015-04-08T07:52:01Z</time></trkpt><trkpt lat="12.0022561960" lon="39.0582897048"><ele>2453.42</ele><time>2015-04-08T07:52:13Z</time></trkpt><trkpt lat="12.0025596209" lon="39.0579955839"><ele>2453.90</ele><time>2015-04-08T07:52:17Z</time></trkpt><trkpt lat="12.0031345356" lon="39.0571039170"><ele>2457.27</ele><time>2015-04-08T07:52:27Z</time></trkpt><trkpt lat="12.0036146510" lon="39.0569413919"><ele>2459.67</ele><time>2015-04-08T07:52:33Z</time></trkpt><trkpt lat="12.0037044212" lon="39.0569700580"><ele>2460.15</ele><time>2015-04-08T07:52:34Z</time></trkpt><trkpt lat="12.0046992693" lon="39.0573598165"><ele>2461.11</ele><time>2015-04-08T07:52:45Z</time></trkpt><trkpt lat="12.0050749462" lon="39.0573487524"><ele>2459.19</ele><time>2015-04-08T07:52:49Z</time></trkpt><trkpt lat="12.0055111405" lon="39.0572164860"><ele>2456.31</ele><time>2015-04-08T07:52:54Z</time></trkpt><trkpt lat="12.0057665370" lon="39.0569518693"><ele>2454.38</ele><time>2015-04-08T07:52:59Z</time></trkpt><trkpt lat="12.0058174152" lon="39.0567931160"><ele>2453.90</ele><time>2015-04-08T07:53:01Z</time></trkpt><trkpt lat="12.0060505997" lon="39.0564582590"><ele>2453.90</ele><time>2015-04-08T07:53:06Z</time></trkpt><trkpt lat="12.0062265359" lon="39.0563095640"><ele>2453.42</ele><time>2015-04-08T07:53:09Z</time></trkpt><trkpt lat="12.0063375123" lon="39.0557555202"><ele>2454.38</ele><time>2015-04-08T07:53:16Z</time></trkpt><trkpt lat="12.0057778526" lon="39.0548086166"><ele>2457.27</ele><time>2015-04-08T07:53:27Z</time></trkpt><trkpt lat="12.0058138948" lon="39.0543378051"><ele>2458.71</ele><time>2015-04-08T07:53:34Z</time></trkpt><trkpt lat="12.0058724843" lon="39.0542918723"><ele>2459.19</ele><time>2015-04-08T07:53:35Z</time></trkpt><trkpt lat="12.0061640907" lon="39.0537623037"><ele>2458.71</ele><time>2015-04-08T07:53:42Z</time></trkpt><trkpt lat="12.0061630849" lon="39.0532045718"><ele>2458.71</ele><time>2015-04-08T07:53:47Z</time></trkpt><trkpt lat="12.0058837999" lon="39.0522677265"><ele>2464.48</ele><time>2015-04-08T07:53:56Z</time></trkpt><trkpt lat="12.0058723167" lon="39.0519126691"><ele>2468.32</ele><time>2015-04-08T07:54:00Z</time></trkpt><trkpt lat="12.0058846381" lon="39.0511955973"><ele>2474.57</ele><time>2015-04-08T07:54:09Z</time></trkpt><trkpt lat="12.0061449800" lon="39.0508502629"><ele>2475.05</ele><time>2015-04-08T07:54:16Z</time></trkpt><trkpt lat="12.0063710399" lon="39.0508379415"><ele>2474.09</ele><time>2015-04-08T07:54:19Z</time></trkpt><trkpt lat="12.0066396799" lon="39.0508640092"><ele>2472.65</ele><time>2015-04-08T07:54:22Z</time></trkpt><trkpt lat="12.0075410698" lon="39.0506714769"><ele>2465.92</ele><time>2015-04-08T07:54:31Z</time></trkpt><trkpt lat="12.0088268537" lon="39.0506582335"><ele>2456.31</ele><time>2015-04-08T07:54:44Z</time></trkpt><trkpt lat="12.0090632234" lon="39.0506998915"><ele>2453.90</ele><time>2015-04-08T07:54:47Z</time></trkpt><trkpt lat="12.0093349647" lon="39.0510281269"><ele>2448.62</ele><time>2015-04-08T07:54:53Z</time></trkpt><trkpt lat="12.0095253177" lon="39.0518358070"><ele>2440.44</ele><time>2015-04-08T07:55:04Z</time></trkpt><trkpt lat="12.0095610246" lon="39.0519009344"><ele>2439.48</ele><time>2015-04-08T07:55:06Z</time></trkpt><trkpt lat="12.0099648647" lon="39.0519884415"><ele>2434.20</ele><time>2015-04-08T07:55:14Z</time></trkpt><trkpt lat="12.0100998972" lon="39.0519147646"><ele>2433.23</ele><time>2015-04-08T07:55:16Z</time></trkpt><trkpt lat="12.0103776734" lon="39.0517400857"><ele>2430.35</ele><time>2015-04-08T07:55:20Z</time></trkpt><trkpt lat="12.0108829346" lon="39.0518133435"><ele>2424.58</ele><time>2015-04-08T07:55:27Z</time></trkpt><trkpt lat="12.0109481458" lon="39.0518757887"><ele>2423.62</ele><time>2015-04-08T07:55:28Z</time></trkpt><trkpt lat="12.0120090432" lon="39.0530637559"><ele>2411.12</ele><time>2015-04-08T07:55:44Z</time></trkpt><trkpt lat="12.0124912541" lon="39.0531677753"><ele>2409.20</ele><time>2015-04-08T07:55:51Z</time></trkpt><trkpt lat="12.0134108327" lon="39.0528423060"><ele>2407.28</ele><time>2015-04-08T07:56:02Z</time></trkpt><trkpt lat="12.0139937103" lon="39.0526853129"><ele>2407.76</ele><time>2015-04-08T07:56:07Z</time></trkpt><trkpt lat="12.0148432162" lon="39.0528796893"><ele>2415.45</ele><time>2015-04-08T07:56:15Z</time></trkpt><trkpt lat="12.0149084274" lon="39.0529471636"><ele>2416.89</ele><time>2015-04-08T07:56:16Z</time></trkpt><trkpt lat="12.0153889619" lon="39.0534753911"><ele>2426.99</ele><time>2015-04-08T07:56:26Z</time></trkpt><trkpt lat="12.0157691650" lon="39.0534644946"><ele>2431.79</ele><time>2015-04-08T07:56:32Z</time></trkpt><trkpt lat="12.0162279066" lon="39.0531875566"><ele>2437.56</ele><time>2015-04-08T07:56:39Z</time></trkpt><trkpt lat="12.0167601574" lon="39.0531332418"><ele>2443.33</ele><time>2015-04-08T07:56:46Z</time></trkpt><trkpt lat="12.0171341579" lon="39.0530071780"><ele>2447.17</ele><time>2015-04-08T07:56:51Z</time></trkpt><trkpt lat="12.0174146164" lon="39.0528542921"><ele>2450.06</ele><time>2015-04-08T07:56:55Z</time></trkpt><trkpt lat="12.0184063632" lon="39.0527558886"><ele>2458.71</ele><time>2015-04-08T07:57:09Z</time></trkpt><trkpt lat="12.0190482493" lon="39.0526724048"><ele>2463.04</ele><time>2015-04-08T07:57:18Z</time></trkpt><trkpt lat="12.0193436276" lon="39.0524787828"><ele>2463.52</ele><time>2015-04-08T07:57:22Z</time></trkpt><trkpt lat="12.0202484541" lon="39.0517881978"><ele>2467.36</ele><time>2015-04-08T07:57:34Z</time></trkpt><trkpt lat="12.0204523019" lon="39.0516492259"><ele>2468.32</ele><time>2015-04-08T07:57:37Z</time></trkpt><trkpt lat="12.0212035719" lon="39.0515364893"><ele>2465.44</ele><time>2015-04-08T07:57:46Z</time></trkpt><trkpt lat="12.0221213065" lon="39.0518813208"><ele>2458.23</ele><time>2015-04-08T07:57:58Z</time></trkpt><trkpt lat="12.0231625065" lon="39.0524133202"><ele>2451.50</ele><time>2015-04-08T07:58:10Z</time></trkpt><trkpt lat="12.0234039892" lon="39.0525068622"><ele>2451.02</ele><time>2015-04-08T07:58:13Z</time></trkpt><trkpt lat="12.0239113458" lon="39.0528877359"><ele>2450.06</ele><time>2015-04-08T07:58:20Z</time></trkpt><trkpt lat="12.0244166907" lon="39.0529308189"><ele>2449.58</ele><time>2015-04-08T07:58:27Z</time></trkpt><trkpt lat="12.0245057903" lon="39.0527957026"><ele>2449.10</ele><time>2015-04-08T07:58:29Z</time></trkpt><trkpt lat="12.0251457486" lon="39.0515483078"><ele>2448.13</ele><time>2015-04-08T07:58:43Z</time></trkpt><trkpt lat="12.0257159695" lon="39.0506681241"><ele>2447.65</ele><time>2015-04-08T07:58:54Z</time></trkpt><trkpt lat="12.0264659822" lon="39.0500017628"><ele>2443.33</ele><time>2015-04-08T07:59:06Z</time></trkpt><trkpt lat="12.0269948803" lon="39.0494069830"><ele>2436.12</ele><time>2015-04-08T07:59:16Z</time></trkpt><trkpt lat="12.0274489280" lon="39.0490223374"><ele>2432.27</ele><time>2015-04-08T07:59:23Z</time></trkpt><trkpt lat="12.0279813465" lon="39.0490787476"><ele>2430.35</ele><time>2015-04-08T07:59:31Z</time></trkpt><trkpt lat="12.0280986093" lon="39.0492086671"><ele>2429.39</ele><time>2015-04-08T07:59:33Z</time></trkpt><trkpt lat="12.0283086598" lon="39.0495358966"><ele>2428.91</ele><time>2015-04-08T07:59:38Z</time></trkpt><trkpt lat="12.0285912137" lon="39.0495822486"><ele>2428.91</ele><time>2015-04-08T07:59:44Z</time></trkpt><trkpt lat="12.0286701713" lon="39.0494804084"><ele>2429.39</ele><time>2015-04-08T07:59:46Z</time></trkpt><trkpt lat="12.0287863445" lon="39.0493100882"><ele>2430.35</ele><time>2015-04-08T07:59:49Z</time></trkpt><trkpt lat="12.0293203555" lon="39.0488924179"><ele>2432.75</ele><time>2015-04-08T07:59:58Z</time></trkpt><trkpt lat="12.0295661967" lon="39.0488209203"><ele>2434.20</ele><time>2015-04-08T08:00:02Z</time></trkpt><trkpt lat="12.0299255289" lon="39.0487840399"><ele>2435.16</ele><time>2015-04-08T08:00:09Z</time></trkpt><trkpt lat="12.0301523432" lon="39.0486813616"><ele>2434.68</ele><time>2015-04-08T08:00:13Z</time></trkpt><trkpt lat="12.0302577876" lon="39.0486028232"><ele>2434.20</ele><time>2015-04-08T08:00:15Z</time></trkpt><trkpt lat="12.0306985918" lon="39.0486083552"><ele>2433.23</ele><time>2015-04-08T08:00:23Z</time></trkpt><trkpt lat="12.0311834849" lon="39.0485330019"><ele>2430.83</ele><time>2015-04-08T08:00:32Z</time></trkpt><trkpt lat="12.0311899390" lon="39.0481757652"><ele>2432.27</ele><time>2015-04-08T08:00:39Z</time></trkpt><trkpt lat="12.0310880989" lon="39.0481046867"><ele>2432.27</ele><time>2015-04-08T08:00:41Z</time></trkpt><trkpt lat="12.0299564581" lon="39.0473965835"><ele>2427.95</ele><time>2015-04-08T08:01:00Z</time></trkpt><trkpt lat="12.0298389439" lon="39.0470095910"><ele>2422.66</ele><time>2015-04-08T08:01:08Z</time></trkpt><trkpt lat="12.0299873874" lon="39.0469398536"><ele>2421.22</ele><time>2015-04-08T08:01:11Z</time></trkpt><trkpt lat="12.0302194823" lon="39.0468941722"><ele>2419.30</ele><time>2015-04-08T08:01:15Z</time></trkpt><trkpt lat="12.0303818397" lon="39.0465978719"><ele>2416.89</ele><time>2015-04-08T08:01:23Z</time></trkpt><trkpt lat="12.0302267745" lon="39.0464293957"><ele>2415.45</ele><time>2015-04-08T08:01:27Z</time></trkpt><trkpt lat="12.0293941163" lon="39.0459488612"><ele>2406.32</ele><time>2015-04-08T08:01:40Z</time></trkpt><trkpt lat="12.0285286848" lon="39.0451112576"><ele>2405.36</ele><time>2015-04-08T08:01:55Z</time></trkpt><trkpt lat="12.0284878649" lon="39.0450544283"><ele>2405.36</ele><time>2015-04-08T08:01:56Z</time></trkpt><trkpt lat="12.0283870306" lon="39.0447932482"><ele>2406.32</ele><time>2015-04-08T08:02:00Z</time></trkpt><trkpt lat="12.0283212326" lon="39.0441330895"><ele>2411.12</ele><time>2015-04-08T08:02:13Z</time></trkpt><trkpt lat="12.0283089951" lon="39.0439795330"><ele>2412.57</ele><time>2015-04-08T08:02:16Z</time></trkpt><trkpt lat="12.0283383317" lon="39.0437210351"><ele>2414.49</ele><time>2015-04-08T08:02:20Z</time></trkpt><trkpt lat="12.0284886193" lon="39.0427295398"><ele>2419.78</ele><time>2015-04-08T08:02:35Z</time></trkpt><trkpt lat="12.0284942351" lon="39.0426083375"><ele>2419.78</ele><time>2015-04-08T08:02:37Z</time></trkpt><trkpt lat="12.0283307880" lon="39.0423656814"><ele>2418.81</ele><time>2015-04-08T08:02:43Z</time></trkpt><trkpt lat="12.0282096695" lon="39.0423091874"><ele>2418.81</ele><time>2015-04-08T08:02:45Z</time></trkpt><trkpt lat="12.0279546082" lon="39.0420764219"><ele>2417.37</ele><time>2015-04-08T08:02:50Z</time></trkpt><trkpt lat="12.0276438911" lon="39.0411446895"><ele>2415.93</ele><time>2015-04-08T08:03:03Z</time></trkpt><trkpt lat="12.0273252949" lon="39.0399081912"><ele>2422.18</ele><time>2015-04-08T08:03:20Z</time></trkpt><trkpt lat="12.0273564756" lon="39.0387970861"><ele>2418.81</ele><time>2015-04-08T08:03:34Z</time></trkpt><trkpt lat="12.0271365345" lon="39.0377378650"><ele>2412.57</ele><time>2015-04-08T08:03:47Z</time></trkpt><trkpt lat="12.0269115642" lon="39.0370632056"><ele>2409.20</ele><time>2015-04-08T08:03:59Z</time></trkpt><trkpt lat="12.0269727521" lon="39.0370171890"><ele>2409.20</ele><time>2015-04-08T08:04:05Z</time></trkpt><trkpt lat="12.0272470079" lon="39.0370169375"><ele>2407.76</ele><time>2015-04-08T08:04:16Z</time></trkpt><trkpt lat="12.0272357762" lon="39.0369260777"><ele>2407.28</ele><time>2015-04-08T08:04:20Z</time></trkpt><trkpt lat="12.0272261370" lon="39.0368832462"><ele>2405.36</ele><time>2015-04-08T08:04:36Z</time></trkpt></trkseg></trk></gpx>